sensor_id;sensor_type;location;lat;lon;timestamp;temperature;humidity
52267;DHT22;38223;50.940;4.034;2024-01-15T00:00:27;4.50;99.90
52267;DHT22;38223;50.940;4.034;2024-01-15T00:02:56;4.50;99.90
52267;DHT22;38223;50.940;4.034;2024-01-15T00:05:25;4.60;99.90
52267;DHT22;38223;50.940;4.034;2024-01-15T00:07:53;4.70;99.90
52267;DHT22;38223;50.940;4.034;2024-01-15T00:10:27;4.70;99.90
52267;DHT22;38223;50.940;4.034;2024-01-15T00:12:54;4.70;99.90
52267;DHT22;38223;50.940;4.034;2024-01-15T00:15:24;4.80;99.90
52267;DHT22;38223;50.940;4.034;2024-01-15T00:17:52;4.70;99.90
52267;DHT22;38223;50.940;4.034;2024-01-15T00:20:24;4.60;99.90
52267;DHT22;38223;50.940;4.034;2024-01-15T00:22:55;4.60;99.90
52267;DHT22;38223;50.940;4.034;2024-01-15T00:25:25;4.60;99.90
52267;DHT22;38223;50.940;4.034;2024-01-15T00:27:55;4.70;99.90
52267;DHT22;38223;50.940;4.034;2024-01-15T00:30:25;4.60;99.90
52267;DHT22;38223;50.940;4.034;2024-01-15T00:32:54;4.50;99.90
52267;DHT22;38223;50.940;4.034;2024-01-15T00:35:24;4.50;99.90
52267;DHT22;38223;50.940;4.034;2024-01-15T00:37:54;4.50;99.90
52267;DHT22;38223;50.940;4.034;2024-01-15T00:40:22;4.50;99.90
52267;DHT22;38223;50.940;4.034;2024-01-15T00:42:53;4.50;99.90
52267;DHT22;38223;50.940;4.034;2024-01-15T00:45:23;4.50;99.90
52267;DHT22;38223;50.940;4.034;2024-01-15T00:47:55;4.40;99.90
52267;DHT22;38223;50.940;4.034;2024-01-15T00:50:24;4.40;99.90
52267;DHT22;38223;50.940;4.034;2024-01-15T00:52:54;4.50;99.90
52267;DHT22;38223;50.940;4.034;2024-01-15T00:55:24;4.50;99.90
52267;DHT22;38223;50.940;4.034;2024-01-15T00:57:55;4.50;99.90
52267;DHT22;38223;50.940;4.034;2024-01-15T01:00:26;4.50;99.90
52267;DHT22;38223;50.940;4.034;2024-01-15T01:02:57;4.40;99.90
52267;DHT22;38223;50.940;4.034;2024-01-15T01:05:24;4.40;99.90
52267;DHT22;38223;50.940;4.034;2024-01-15T01:07:53;4.40;99.90
52267;DHT22;38223;50.940;4.034;2024-01-15T01:10:24;4.50;99.90
52267;DHT22;38223;50.940;4.034;2024-01-15T01:12:53;4.50;99.90
52267;DHT22;38223;50.940;4.034;2024-01-15T01:15:24;4.40;99.90
52267;DHT22;38223;50.940;4.034;2024-01-15T01:17:52;4.30;99.90
52267;DHT22;38223;50.940;4.034;2024-01-15T01:20:21;4.40;99.90
52267;DHT22;38223;50.940;4.034;2024-01-15T01:22:48;4.30;99.90
52267;DHT22;38223;50.940;4.034;2024-01-15T01:25:17;4.20;99.90
52267;DHT22;38223;50.940;4.034;2024-01-15T01:27:45;4.20;99.90
52267;DHT22;38223;50.940;4.034;2024-01-15T01:30:14;4.10;99.90
52267;DHT22;38223;50.940;4.034;2024-01-15T01:32:44;4.10;99.90
52267;DHT22;38223;50.940;4.034;2024-01-15T01:35:13;4.30;99.90
52267;DHT22;38223;50.940;4.034;2024-01-15T01:37:42;4.30;99.90
52267;DHT22;38223;50.940;4.034;2024-01-15T01:40:12;4.30;99.90
52267;DHT22;38223;50.940;4.034;2024-01-15T01:42:45;4.40;99.90
52267;DHT22;38223;50.940;4.034;2024-01-15T01:45:11;4.40;99.90
52267;DHT22;38223;50.940;4.034;2024-01-15T01:47:40;4.50;99.90
52267;DHT22;38223;50.940;4.034;2024-01-15T01:50:10;4.60;99.90
52267;DHT22;38223;50.940;4.034;2024-01-15T01:52:41;4.50;99.90
52267;DHT22;38223;50.940;4.034;2024-01-15T01:55:12;4.50;99.90
52267;DHT22;38223;50.940;4.034;2024-01-15T01:57:41;4.50;99.90
52267;DHT22;38223;50.940;4.034;2024-01-15T02:00:14;4.60;99.90
52267;DHT22;38223;50.940;4.034;2024-01-15T02:02:47;4.60;99.90
52267;DHT22;38223;50.940;4.034;2024-01-15T02:05:14;4.70;99.90
52267;DHT22;38223;50.940;4.034;2024-01-15T02:07:45;4.60;99.90
52267;DHT22;38223;50.940;4.034;2024-01-15T02:10:15;4.60;99.90
52267;DHT22;38223;50.940;4.034;2024-01-15T02:12:47;4.70;99.90
52267;DHT22;38223;50.940;4.034;2024-01-15T02:15:18;4.60;99.90
52267;DHT22;38223;50.940;4.034;2024-01-15T02:17:57;4.70;99.90
52267;DHT22;38223;50.940;4.034;2024-01-15T02:20:25;4.70;99.90
52267;DHT22;38223;50.940;4.034;2024-01-15T02:22:54;4.50;99.90
52267;DHT22;38223;50.940;4.034;2024-01-15T02:25:22;4.50;99.90
52267;DHT22;38223;50.940;4.034;2024-01-15T02:27:50;4.40;99.90
52267;DHT22;38223;50.940;4.034;2024-01-15T02:30:22;4.40;99.90
52267;DHT22;38223;50.940;4.034;2024-01-15T02:32:52;4.50;99.90
52267;DHT22;38223;50.940;4.034;2024-01-15T02:35:23;4.50;99.90
52267;DHT22;38223;50.940;4.034;2024-01-15T02:37:51;4.60;99.90
52267;DHT22;38223;50.940;4.034;2024-01-15T02:40:22;4.60;99.90
52267;DHT22;38223;50.940;4.034;2024-01-15T02:42:50;4.60;99.90
52267;DHT22;38223;50.940;4.034;2024-01-15T02:45:21;4.60;99.90
52267;DHT22;38223;50.940;4.034;2024-01-15T02:47:51;4.60;99.90
52267;DHT22;38223;50.940;4.034;2024-01-15T02:50:23;4.50;99.90
52267;DHT22;38223;50.940;4.034;2024-01-15T02:52:51;4.60;99.90
52267;DHT22;38223;50.940;4.034;2024-01-15T02:55:21;4.70;99.90
52267;DHT22;38223;50.940;4.034;2024-01-15T02:57:54;4.70;99.90
52267;DHT22;38223;50.940;4.034;2024-01-15T03:00:24;4.60;99.90
52267;DHT22;38223;50.940;4.034;2024-01-15T03:02:55;4.60;99.90
52267;DHT22;38223;50.940;4.034;2024-01-15T03:05:24;4.60;99.90
52267;DHT22;38223;50.940;4.034;2024-01-15T03:07:52;4.70;99.90
52267;DHT22;38223;50.940;4.034;2024-01-15T03:10:19;4.60;99.90
52267;DHT22;38223;50.940;4.034;2024-01-15T03:12:48;4.80;99.90
52267;DHT22;38223;50.940;4.034;2024-01-15T03:15:16;5.20;99.90
52267;DHT22;38223;50.940;4.034;2024-01-15T03:17:44;5.40;99.90
52267;DHT22;38223;50.940;4.034;2024-01-15T03:20:14;5.50;99.90
52267;DHT22;38223;50.940;4.034;2024-01-15T03:22:42;5.40;99.90
52267;DHT22;38223;50.940;4.034;2024-01-15T03:25:11;5.30;99.90
52267;DHT22;38223;50.940;4.034;2024-01-15T03:27:42;5.20;99.90
52267;DHT22;38223;50.940;4.034;2024-01-15T03:30:12;5.20;99.90
52267;DHT22;38223;50.940;4.034;2024-01-15T03:32:40;5.20;99.90
52267;DHT22;38223;50.940;4.034;2024-01-15T03:35:09;5.20;99.90
52267;DHT22;38223;50.940;4.034;2024-01-15T03:37:39;5.00;99.90
52267;DHT22;38223;50.940;4.034;2024-01-15T03:40:07;4.90;99.90
52267;DHT22;38223;50.940;4.034;2024-01-15T03:42:36;4.90;99.90
52267;DHT22;38223;50.940;4.034;2024-01-15T03:45:10;5.00;99.90
52267;DHT22;38223;50.940;4.034;2024-01-15T03:47:37;5.00;99.90
52267;DHT22;38223;50.940;4.034;2024-01-15T03:50:07;5.00;99.90
52267;DHT22;38223;50.940;4.034;2024-01-15T03:52:37;5.00;99.90
52267;DHT22;38223;50.940;4.034;2024-01-15T03:55:05;4.90;99.90
52267;DHT22;38223;50.940;4.034;2024-01-15T03:57:34;4.90;99.90
52267;DHT22;38223;50.940;4.034;2024-01-15T04:00:05;4.80;99.90
52267;DHT22;38223;50.940;4.034;2024-01-15T04:02:35;4.80;99.90
52267;DHT22;38223;50.940;4.034;2024-01-15T04:05:05;4.80;99.90
52267;DHT22;38223;50.940;4.034;2024-01-15T04:07:33;4.80;99.90
52267;DHT22;38223;50.940;4.034;2024-01-15T04:10:03;4.60;99.90
52267;DHT22;38223;50.940;4.034;2024-01-15T04:12:30;4.40;99.90
52267;DHT22;38223;50.940;4.034;2024-01-15T04:15:00;4.30;99.90
52267;DHT22;38223;50.940;4.034;2024-01-15T04:17:29;4.30;99.90
52267;DHT22;38223;50.940;4.034;2024-01-15T04:19:59;4.30;99.90
52267;DHT22;38223;50.940;4.034;2024-01-15T04:22:29;4.30;99.90
52267;DHT22;38223;50.940;4.034;2024-01-15T04:25:01;4.30;99.90
52267;DHT22;38223;50.940;4.034;2024-01-15T04:27:30;4.30;99.90
52267;DHT22;38223;50.940;4.034;2024-01-15T04:30:00;4.20;99.90
52267;DHT22;38223;50.940;4.034;2024-01-15T04:32:28;4.10;99.90
52267;DHT22;38223;50.940;4.034;2024-01-15T04:34:56;3.80;99.90
52267;DHT22;38223;50.940;4.034;2024-01-15T04:37:25;3.70;99.90
52267;DHT22;38223;50.940;4.034;2024-01-15T04:39:54;3.60;99.90
52267;DHT22;38223;50.940;4.034;2024-01-15T04:42:24;3.60;99.90
52267;DHT22;38223;50.940;4.034;2024-01-15T04:44:53;3.50;99.90
52267;DHT22;38223;50.940;4.034;2024-01-15T04:47:21;3.50;99.90
52267;DHT22;38223;50.940;4.034;2024-01-15T04:49:51;3.50;99.90
52267;DHT22;38223;50.940;4.034;2024-01-15T04:52:20;3.50;99.90
52267;DHT22;38223;50.940;4.034;2024-01-15T04:54:51;3.50;99.90
52267;DHT22;38223;50.940;4.034;2024-01-15T04:57:22;3.50;99.90
52267;DHT22;38223;50.940;4.034;2024-01-15T04:59:50;3.60;99.90
52267;DHT22;38223;50.940;4.034;2024-01-15T05:02:21;3.50;99.90
52267;DHT22;38223;50.940;4.034;2024-01-15T05:04:54;3.50;99.90
52267;DHT22;38223;50.940;4.034;2024-01-15T05:07:23;3.50;99.90
52267;DHT22;38223;50.940;4.034;2024-01-15T05:09:53;3.50;99.90
52267;DHT22;38223;50.940;4.034;2024-01-15T05:12:28;3.60;99.90
52267;DHT22;38223;50.940;4.034;2024-01-15T05:14:57;3.60;99.90
52267;DHT22;38223;50.940;4.034;2024-01-15T05:17:25;3.70;99.90
52267;DHT22;38223;50.940;4.034;2024-01-15T05:19:54;3.70;99.90
52267;DHT22;38223;50.940;4.034;2024-01-15T05:22:22;3.70;99.90
52267;DHT22;38223;50.940;4.034;2024-01-15T05:24:52;3.70;99.90
52267;DHT22;38223;50.940;4.034;2024-01-15T05:27:23;3.70;99.90
52267;DHT22;38223;50.940;4.034;2024-01-15T05:29:51;3.70;99.90
52267;DHT22;38223;50.940;4.034;2024-01-15T05:32:20;3.70;99.90
52267;DHT22;38223;50.940;4.034;2024-01-15T05:34:50;3.70;99.90
52267;DHT22;38223;50.940;4.034;2024-01-15T05:37:18;3.80;99.90
52267;DHT22;38223;50.940;4.034;2024-01-15T05:39:46;3.80;99.90
52267;DHT22;38223;50.940;4.034;2024-01-15T05:42:15;3.80;99.90
52267;DHT22;38223;50.940;4.034;2024-01-15T05:44:43;3.80;99.90
52267;DHT22;38223;50.940;4.034;2024-01-15T05:47:13;3.80;99.90
52267;DHT22;38223;50.940;4.034;2024-01-15T05:49:46;3.70;99.90
52267;DHT22;38223;50.940;4.034;2024-01-15T05:52:15;3.70;99.90
52267;DHT22;38223;50.940;4.034;2024-01-15T05:54:46;3.60;99.90
52267;DHT22;38223;50.940;4.034;2024-01-15T05:57:15;3.60;99.90
52267;DHT22;38223;50.940;4.034;2024-01-15T05:59:49;3.70;99.90
52267;DHT22;38223;50.940;4.034;2024-01-15T06:02:17;3.70;99.90
52267;DHT22;38223;50.940;4.034;2024-01-15T06:04:45;3.60;99.90
52267;DHT22;38223;50.940;4.034;2024-01-15T06:07:15;3.70;99.90
52267;DHT22;38223;50.940;4.034;2024-01-15T06:09:46;3.80;99.90
52267;DHT22;38223;50.940;4.034;2024-01-15T06:12:16;3.90;99.90
52267;DHT22;38223;50.940;4.034;2024-01-15T06:14:46;3.90;99.90
52267;DHT22;38223;50.940;4.034;2024-01-15T06:17:14;3.90;99.90
52267;DHT22;38223;50.940;4.034;2024-01-15T06:19:44;3.90;99.90
52267;DHT22;38223;50.940;4.034;2024-01-15T06:22:25;3.80;99.90
52267;DHT22;38223;50.940;4.034;2024-01-15T06:24:57;3.70;99.90
52267;DHT22;38223;50.940;4.034;2024-01-15T06:27:25;3.60;99.90
52267;DHT22;38223;50.940;4.034;2024-01-15T06:29:53;3.70;99.90
52267;DHT22;38223;50.940;4.034;2024-01-15T06:32:23;3.80;99.90
52267;DHT22;38223;50.940;4.034;2024-01-15T06:34:51;3.80;99.90
52267;DHT22;38223;50.940;4.034;2024-01-15T06:37:20;3.70;99.90
52267;DHT22;38223;50.940;4.034;2024-01-15T06:39:48;3.90;99.90
52267;DHT22;38223;50.940;4.034;2024-01-15T06:42:16;3.80;99.90
52267;DHT22;38223;50.940;4.034;2024-01-15T06:44:49;3.80;99.90
52267;DHT22;38223;50.940;4.034;2024-01-15T06:47:20;3.70;99.90
52267;DHT22;38223;50.940;4.034;2024-01-15T06:49:48;3.60;99.90
52267;DHT22;38223;50.940;4.034;2024-01-15T06:52:18;3.60;99.90
52267;DHT22;38223;50.940;4.034;2024-01-15T06:54:46;3.60;99.90
52267;DHT22;38223;50.940;4.034;2024-01-15T06:57:13;3.60;99.90
52267;DHT22;38223;50.940;4.034;2024-01-15T07:02:31;3.50;99.90
52267;DHT22;38223;50.940;4.034;2024-01-15T07:05:01;3.40;99.90
52267;DHT22;38223;50.940;4.034;2024-01-15T07:07:31;3.40;99.90
52267;DHT22;38223;50.940;4.034;2024-01-15T07:10:01;3.40;99.90
52267;DHT22;38223;50.940;4.034;2024-01-15T07:12:30;3.50;99.90
52267;DHT22;38223;50.940;4.034;2024-01-15T07:14:58;3.40;99.90
52267;DHT22;38223;50.940;4.034;2024-01-15T07:17:27;3.50;99.90
52267;DHT22;38223;50.940;4.034;2024-01-15T07:19:55;3.40;99.90
52267;DHT22;38223;50.940;4.034;2024-01-15T07:22:24;3.40;99.90
52267;DHT22;38223;50.940;4.034;2024-01-15T07:24:51;3.30;99.90
52267;DHT22;38223;50.940;4.034;2024-01-15T07:27:22;3.40;99.90
52267;DHT22;38223;50.940;4.034;2024-01-15T07:29:49;3.40;99.90
52267;DHT22;38223;50.940;4.034;2024-01-15T07:32:19;3.40;99.90
52267;DHT22;38223;50.940;4.034;2024-01-15T07:34:49;3.50;99.90
52267;DHT22;38223;50.940;4.034;2024-01-15T07:37:19;3.40;99.90
52267;DHT22;38223;50.940;4.034;2024-01-15T07:39:52;3.50;99.90
52267;DHT22;38223;50.940;4.034;2024-01-15T07:42:21;3.40;99.90
52267;DHT22;38223;50.940;4.034;2024-01-15T07:44:54;3.40;99.90
52267;DHT22;38223;50.940;4.034;2024-01-15T07:47:25;3.30;99.90
52267;DHT22;38223;50.940;4.034;2024-01-15T07:49:52;3.30;99.90
52267;DHT22;38223;50.940;4.034;2024-01-15T07:52:24;3.30;99.90
52267;DHT22;38223;50.940;4.034;2024-01-15T07:54:53;3.30;99.90
52267;DHT22;38223;50.940;4.034;2024-01-15T07:57:24;3.30;99.90
52267;DHT22;38223;50.940;4.034;2024-01-15T07:59:52;3.30;99.90
52267;DHT22;38223;50.940;4.034;2024-01-15T08:02:26;3.30;99.90
52267;DHT22;38223;50.940;4.034;2024-01-15T08:04:56;3.30;99.90
52267;DHT22;38223;50.940;4.034;2024-01-15T08:07:25;3.30;99.90
52267;DHT22;38223;50.940;4.034;2024-01-15T08:09:53;3.30;99.90
52267;DHT22;38223;50.940;4.034;2024-01-15T08:12:22;3.30;99.90
52267;DHT22;38223;50.940;4.034;2024-01-15T08:14:54;3.20;99.90
52267;DHT22;38223;50.940;4.034;2024-01-15T08:17:23;3.30;99.90
52267;DHT22;38223;50.940;4.034;2024-01-15T08:19:52;3.30;99.90
52267;DHT22;38223;50.940;4.034;2024-01-15T08:22:22;3.30;99.90
52267;DHT22;38223;50.940;4.034;2024-01-15T08:24:51;3.30;99.90
52267;DHT22;38223;50.940;4.034;2024-01-15T08:27:19;3.30;99.90
52267;DHT22;38223;50.940;4.034;2024-01-15T08:29:51;3.40;99.90
52267;DHT22;38223;50.940;4.034;2024-01-15T08:32:22;3.20;99.90
52267;DHT22;38223;50.940;4.034;2024-01-15T08:34:51;3.20;99.90
52267;DHT22;38223;50.940;4.034;2024-01-15T08:37:22;3.20;99.90
52267;DHT22;38223;50.940;4.034;2024-01-15T08:39:52;3.20;99.90
52267;DHT22;38223;50.940;4.034;2024-01-15T08:42:19;3.30;99.90
52267;DHT22;38223;50.940;4.034;2024-01-15T08:44:49;3.10;99.90
52267;DHT22;38223;50.940;4.034;2024-01-15T08:47:18;3.10;99.90
52267;DHT22;38223;50.940;4.034;2024-01-15T08:49:50;3.20;99.90
52267;DHT22;38223;50.940;4.034;2024-01-15T08:52:21;3.20;99.90
52267;DHT22;38223;50.940;4.034;2024-01-15T08:54:49;3.20;99.90
52267;DHT22;38223;50.940;4.034;2024-01-15T08:57:18;3.20;99.90
52267;DHT22;38223;50.940;4.034;2024-01-15T08:59:47;3.20;99.90
52267;DHT22;38223;50.940;4.034;2024-01-15T09:02:17;3.20;99.90
52267;DHT22;38223;50.940;4.034;2024-01-15T09:04:46;3.20;99.90
52267;DHT22;38223;50.940;4.034;2024-01-15T09:07:15;3.30;99.90
52267;DHT22;38223;50.940;4.034;2024-01-15T09:09:45;3.30;99.90
52267;DHT22;38223;50.940;4.034;2024-01-15T09:12:14;3.30;99.90
52267;DHT22;38223;50.940;4.034;2024-01-15T09:14:41;3.30;99.90
52267;DHT22;38223;50.940;4.034;2024-01-15T09:17:11;3.50;99.90
52267;DHT22;38223;50.940;4.034;2024-01-15T09:19:41;3.50;99.90
52267;DHT22;38223;50.940;4.034;2024-01-15T09:22:10;3.50;99.90
52267;DHT22;38223;50.940;4.034;2024-01-15T09:24:39;3.70;99.90
52267;DHT22;38223;50.940;4.034;2024-01-15T09:27:09;3.80;99.90
52267;DHT22;38223;50.940;4.034;2024-01-15T09:29:38;3.80;99.90
52267;DHT22;38223;50.940;4.034;2024-01-15T09:32:06;3.70;99.90
52267;DHT22;38223;50.940;4.034;2024-01-15T09:34:35;3.80;99.90
52267;DHT22;38223;50.940;4.034;2024-01-15T09:37:05;3.90;99.90
52267;DHT22;38223;50.940;4.034;2024-01-15T09:39:37;3.90;99.90
52267;DHT22;38223;50.940;4.034;2024-01-15T09:42:05;3.90;99.90
52267;DHT22;38223;50.940;4.034;2024-01-15T09:44:35;3.90;99.90
52267;DHT22;38223;50.940;4.034;2024-01-15T09:47:06;3.80;99.90
52267;DHT22;38223;50.940;4.034;2024-01-15T09:49:36;3.80;99.90
52267;DHT22;38223;50.940;4.034;2024-01-15T09:52:06;3.90;99.90
52267;DHT22;38223;50.940;4.034;2024-01-15T09:54:36;3.80;99.90
52267;DHT22;38223;50.940;4.034;2024-01-15T09:57:08;3.90;99.90
52267;DHT22;38223;50.940;4.034;2024-01-15T09:59:36;3.90;99.90
52267;DHT22;38223;50.940;4.034;2024-01-15T10:02:05;3.80;99.90
52267;DHT22;38223;50.940;4.034;2024-01-15T10:04:35;3.80;99.90
52267;DHT22;38223;50.940;4.034;2024-01-15T10:07:05;3.90;99.90
52267;DHT22;38223;50.940;4.034;2024-01-15T10:09:32;3.90;99.90
52267;DHT22;38223;50.940;4.034;2024-01-15T10:12:00;4.00;99.90
52267;DHT22;38223;50.940;4.034;2024-01-15T10:14:34;4.10;99.90
52267;DHT22;38223;50.940;4.034;2024-01-15T10:17:14;4.20;99.90
52267;DHT22;38223;50.940;4.034;2024-01-15T10:19:41;4.10;99.90
52267;DHT22;38223;50.940;4.034;2024-01-15T10:22:12;4.10;99.90
52267;DHT22;38223;50.940;4.034;2024-01-15T10:24:40;4.20;99.90
52267;DHT22;38223;50.940;4.034;2024-01-15T10:27:08;4.20;99.90
52267;DHT22;38223;50.940;4.034;2024-01-15T10:29:40;4.30;99.90
52267;DHT22;38223;50.940;4.034;2024-01-15T10:32:11;4.40;99.90
52267;DHT22;38223;50.940;4.034;2024-01-15T10:34:44;4.50;99.90
52267;DHT22;38223;50.940;4.034;2024-01-15T10:37:14;4.60;99.90
52267;DHT22;38223;50.940;4.034;2024-01-15T10:39:42;4.60;99.90
52267;DHT22;38223;50.940;4.034;2024-01-15T10:42:10;4.80;99.90
52267;DHT22;38223;50.940;4.034;2024-01-15T10:44:37;4.90;99.90
52267;DHT22;38223;50.940;4.034;2024-01-15T10:47:07;4.90;99.90
52267;DHT22;38223;50.940;4.034;2024-01-15T10:49:35;4.90;99.90
52267;DHT22;38223;50.940;4.034;2024-01-15T10:52:05;5.00;99.90
52267;DHT22;38223;50.940;4.034;2024-01-15T10:54:35;5.20;99.90
52267;DHT22;38223;50.940;4.034;2024-01-15T10:57:04;5.00;99.90
52267;DHT22;38223;50.940;4.034;2024-01-15T10:59:33;5.00;99.90
52267;DHT22;38223;50.940;4.034;2024-01-15T11:02:03;5.00;99.90
52267;DHT22;38223;50.940;4.034;2024-01-15T11:04:35;4.90;99.90
52267;DHT22;38223;50.940;4.034;2024-01-15T11:07:05;4.80;99.90
52267;DHT22;38223;50.940;4.034;2024-01-15T11:09:34;4.90;99.90
52267;DHT22;38223;50.940;4.034;2024-01-15T11:12:08;4.90;99.90
52267;DHT22;38223;50.940;4.034;2024-01-15T11:14:42;4.80;99.90
52267;DHT22;38223;50.940;4.034;2024-01-15T11:17:13;4.70;99.90
52267;DHT22;38223;50.940;4.034;2024-01-15T11:22:47;4.60;99.90
52267;DHT22;38223;50.940;4.034;2024-01-15T11:25:01;4.50;99.90
52267;DHT22;38223;50.940;4.034;2024-01-15T11:27:41;4.60;99.90
52267;DHT22;38223;50.940;4.034;2024-01-15T11:30:13;4.60;99.90
52267;DHT22;38223;50.940;4.034;2024-01-15T11:32:43;4.60;99.90
52267;DHT22;38223;50.940;4.034;2024-01-15T11:35:13;4.70;99.90
52267;DHT22;38223;50.940;4.034;2024-01-15T11:43:03;4.70;99.90
52267;DHT22;38223;50.940;4.034;2024-01-15T11:45:36;4.80;99.90
52267;DHT22;38223;50.940;4.034;2024-01-15T11:48:15;4.80;99.90
52267;DHT22;38223;50.940;4.034;2024-01-15T11:50:47;4.90;99.90
52267;DHT22;38223;50.940;4.034;2024-01-15T11:55:55;5.00;99.90
52267;DHT22;38223;50.940;4.034;2024-01-15T11:58:23;5.10;99.90
52267;DHT22;38223;50.940;4.034;2024-01-15T12:00:54;5.10;99.90
52267;DHT22;38223;50.940;4.034;2024-01-15T12:03:27;4.90;99.90
52267;DHT22;38223;50.940;4.034;2024-01-15T12:05:57;4.90;99.90
52267;DHT22;38223;50.940;4.034;2024-01-15T12:08:46;5.00;99.90
52267;DHT22;38223;50.940;4.034;2024-01-15T12:11:14;5.10;99.90
52267;DHT22;38223;50.940;4.034;2024-01-15T12:13:46;4.90;99.90
52267;DHT22;38223;50.940;4.034;2024-01-15T12:16:18;4.90;99.90
52267;DHT22;38223;50.940;4.034;2024-01-15T12:18:48;4.70;99.90
52267;DHT22;38223;50.940;4.034;2024-01-15T12:21:17;4.60;99.90
52267;DHT22;38223;50.940;4.034;2024-01-15T12:23:49;4.80;99.90
52267;DHT22;38223;50.940;4.034;2024-01-15T12:26:20;5.00;99.90
52267;DHT22;38223;50.940;4.034;2024-01-15T12:28:49;5.10;99.90
52267;DHT22;38223;50.940;4.034;2024-01-15T12:31:20;5.20;99.90
52267;DHT22;38223;50.940;4.034;2024-01-15T12:33:53;5.20;99.90
52267;DHT22;38223;50.940;4.034;2024-01-15T12:36:21;5.20;99.90
52267;DHT22;38223;50.940;4.034;2024-01-15T12:38:51;5.20;99.90
52267;DHT22;38223;50.940;4.034;2024-01-15T12:41:18;5.30;99.90
52267;DHT22;38223;50.940;4.034;2024-01-15T12:43:47;5.30;99.90
52267;DHT22;38223;50.940;4.034;2024-01-15T12:46:15;5.30;99.90
52267;DHT22;38223;50.940;4.034;2024-01-15T12:48:46;5.40;99.90
52267;DHT22;38223;50.940;4.034;2024-01-15T12:51:18;5.10;99.90
52267;DHT22;38223;50.940;4.034;2024-01-15T12:53:48;4.90;99.90
52267;DHT22;38223;50.940;4.034;2024-01-15T12:56:16;5.10;99.90
52267;DHT22;38223;50.940;4.034;2024-01-15T12:58:45;5.30;99.90
52267;DHT22;38223;50.940;4.034;2024-01-15T13:01:13;5.50;99.90
52267;DHT22;38223;50.940;4.034;2024-01-15T13:03:42;5.50;99.90
52267;DHT22;38223;50.940;4.034;2024-01-15T13:06:11;5.60;99.90
52267;DHT22;38223;50.940;4.034;2024-01-15T13:08:43;5.40;99.90
52267;DHT22;38223;50.940;4.034;2024-01-15T13:11:11;5.10;99.90
52267;DHT22;38223;50.940;4.034;2024-01-15T13:13:39;5.10;99.90
52267;DHT22;38223;50.940;4.034;2024-01-15T13:16:09;5.30;99.90
52267;DHT22;38223;50.940;4.034;2024-01-15T13:18:38;5.20;99.90
52267;DHT22;38223;50.940;4.034;2024-01-15T13:21:08;5.10;99.90
52267;DHT22;38223;50.940;4.034;2024-01-15T13:23:37;5.10;99.90
52267;DHT22;38223;50.940;4.034;2024-01-15T13:26:06;5.30;99.90
52267;DHT22;38223;50.940;4.034;2024-01-15T13:28:34;5.20;99.90
52267;DHT22;38223;50.940;4.034;2024-01-15T13:31:06;5.20;99.90
52267;DHT22;38223;50.940;4.034;2024-01-15T13:33:34;5.20;99.90
52267;DHT22;38223;50.940;4.034;2024-01-15T13:36:04;5.40;99.90
52267;DHT22;38223;50.940;4.034;2024-01-15T13:38:36;5.40;99.90
52267;DHT22;38223;50.940;4.034;2024-01-15T13:41:06;4.90;99.90
52267;DHT22;38223;50.940;4.034;2024-01-15T13:43:33;4.50;99.90
52267;DHT22;38223;50.940;4.034;2024-01-15T13:46:04;4.10;99.90
52267;DHT22;38223;50.940;4.034;2024-01-15T13:48:30;3.90;99.90
52267;DHT22;38223;50.940;4.034;2024-01-15T13:50:58;3.70;99.90
52267;DHT22;38223;50.940;4.034;2024-01-15T13:53:27;3.70;99.90
52267;DHT22;38223;50.940;4.034;2024-01-15T13:55:57;3.80;99.90
52267;DHT22;38223;50.940;4.034;2024-01-15T13:58:25;4.00;99.90
52267;DHT22;38223;50.940;4.034;2024-01-15T14:00:55;3.90;99.90
52267;DHT22;38223;50.940;4.034;2024-01-15T14:03:25;3.80;99.90
52267;DHT22;38223;50.940;4.034;2024-01-15T14:05:53;3.90;99.90
52267;DHT22;38223;50.940;4.034;2024-01-15T14:08:22;3.90;99.90
52267;DHT22;38223;50.940;4.034;2024-01-15T14:10:50;3.90;99.90
52267;DHT22;38223;50.940;4.034;2024-01-15T14:13:18;4.00;99.90
52267;DHT22;38223;50.940;4.034;2024-01-15T14:15:49;4.10;99.90
52267;DHT22;38223;50.940;4.034;2024-01-15T14:18:18;4.20;99.90
52267;DHT22;38223;50.940;4.034;2024-01-15T14:20:46;4.30;99.90
52267;DHT22;38223;50.940;4.034;2024-01-15T14:23:14;4.40;99.90
52267;DHT22;38223;50.940;4.034;2024-01-15T14:25:42;4.60;99.90
52267;DHT22;38223;50.940;4.034;2024-01-15T14:28:10;4.30;99.90
52267;DHT22;38223;50.940;4.034;2024-01-15T14:30:40;3.60;99.90
52267;DHT22;38223;50.940;4.034;2024-01-15T14:33:08;3.10;99.90
52267;DHT22;38223;50.940;4.034;2024-01-15T14:35:36;2.80;99.90
52267;DHT22;38223;50.940;4.034;2024-01-15T14:38:09;2.70;99.90
52267;DHT22;38223;50.940;4.034;2024-01-15T14:40:36;2.90;99.90
52267;DHT22;38223;50.940;4.034;2024-01-15T14:43:05;2.70;99.90
52267;DHT22;38223;50.940;4.034;2024-01-15T14:45:33;2.40;99.90
52267;DHT22;38223;50.940;4.034;2024-01-15T14:48:05;2.40;99.90
52267;DHT22;38223;50.940;4.034;2024-01-15T14:50:34;2.40;99.90
52267;DHT22;38223;50.940;4.034;2024-01-15T14:53:01;2.50;99.90
52267;DHT22;38223;50.940;4.034;2024-01-15T14:55:31;2.50;99.90
52267;DHT22;38223;50.940;4.034;2024-01-15T14:58:00;2.40;99.90
52267;DHT22;38223;50.940;4.034;2024-01-15T15:00:28;2.70;99.90
52267;DHT22;38223;50.940;4.034;2024-01-15T15:02:57;2.80;99.90
52267;DHT22;38223;50.940;4.034;2024-01-15T15:05:25;2.80;99.90
52267;DHT22;38223;50.940;4.034;2024-01-15T15:08:12;2.90;99.90
52267;DHT22;38223;50.940;4.034;2024-01-15T15:10:42;2.90;99.90
52267;DHT22;38223;50.940;4.034;2024-01-15T15:13:12;2.90;99.90
52267;DHT22;38223;50.940;4.034;2024-01-15T15:15:42;3.00;99.90
52267;DHT22;38223;50.940;4.034;2024-01-15T15:18:15;3.10;99.90
52267;DHT22;38223;50.940;4.034;2024-01-15T15:20:44;3.10;99.90
52267;DHT22;38223;50.940;4.034;2024-01-15T15:23:14;3.10;99.90
52267;DHT22;38223;50.940;4.034;2024-01-15T15:25:49;3.00;99.90
52267;DHT22;38223;50.940;4.034;2024-01-15T15:28:18;2.90;99.90
52267;DHT22;38223;50.940;4.034;2024-01-15T15:30:48;2.90;99.90
52267;DHT22;38223;50.940;4.034;2024-01-15T15:33:16;3.00;99.90
52267;DHT22;38223;50.940;4.034;2024-01-15T15:35:46;3.10;99.90
52267;DHT22;38223;50.940;4.034;2024-01-15T15:38:13;2.90;99.90
52267;DHT22;38223;50.940;4.034;2024-01-15T15:40:43;2.80;99.90
52267;DHT22;38223;50.940;4.034;2024-01-15T15:43:13;3.00;99.90
52267;DHT22;38223;50.940;4.034;2024-01-15T15:45:42;3.00;99.90
52267;DHT22;38223;50.940;4.034;2024-01-15T15:48:10;3.10;99.90
52267;DHT22;38223;50.940;4.034;2024-01-15T15:50:40;3.10;99.90
52267;DHT22;38223;50.940;4.034;2024-01-15T15:53:08;3.10;99.90
52267;DHT22;38223;50.940;4.034;2024-01-15T15:55:37;3.20;99.90
52267;DHT22;38223;50.940;4.034;2024-01-15T15:58:05;3.10;99.90
52267;DHT22;38223;50.940;4.034;2024-01-15T16:00:34;3.10;99.90
52267;DHT22;38223;50.940;4.034;2024-01-15T16:03:05;2.90;99.90
52267;DHT22;38223;50.940;4.034;2024-01-15T16:05:33;2.90;99.90
52267;DHT22;38223;50.940;4.034;2024-01-15T16:08:04;2.90;99.90
52267;DHT22;38223;50.940;4.034;2024-01-15T16:10:33;2.80;99.90
52267;DHT22;38223;50.940;4.034;2024-01-15T16:13:02;2.90;99.90